Flight ASXF02X

  • Submitted By: Rafal Piotrowski
  • Departure Airport: Athens (LGAV)
  • Arrival Airport: Warszawa Chopina (EPWA)
  • Aircraft: B777-300 (SP-JJJ)
  • Flight Time: 2.41
  • Date Submitted: 12/04/2015
  • Route: KEA UL617 SKP UV652 PEREN UN133 EVIVI N133 LOMOS UN133 NARKA DCT KEKED UN133 LENOV N133 KOTEK M866
  • Status: Accepted
Flight Details
Gross Revenue:
(280 load / € 185.00 per unit
€ 51,800.00
Fuel Cost:
(37215 fuel used @ 0.45 / unit)
€ 16,746.75

Additional Log Information:

View Log

[2015/12/03 23:10:00]
Flight IATA:ASXF02X
Pilot Number:ASX0102
Company ICAO:ASX
Aircraft Type:B777-300
PAX:280
Aircraft Registration:SP-JJJ
Departing Airport: LGAV
Destination Airport: EPWA
Alternate Airport:EPGD
Online: VATSIM
Route:KEA UL617 SKP UV652 PEREN UN133 EVIVI N133 LOMOS UN133 NARKA DCT KEKED UN133 LENOV N133 KOTEK M866
Flight Level:37000
23:10 Zero fuel Weight: 470863 Lbs, Fuel Weight: 49045 Lbs
23:10 VATSIM:LGAV 032250Z VRB02KT 9999 SCT025 07/06 Q1033 NOSIG
23:10 VATSIM:EPWA 032300Z 21004KT 9999 FEW032 07/06 Q1030 NOSIG
23:33 Parking Brakes off
23:33 Com1 Freq=136.97
23:51 VR= 174 Knots
23:52 V2= 193 Knots
23:52 Take-off
23:52 Take off Weight: 517407 Lbs
23:52 Wind: 300? @ 003 Knots Heading: 036?
23:52 POS N37? 55? 59?? E023? 55? 47??
23:52 N11 103 N12 103
23:52 TOC
23:52 Fuel Weight: 46520 Lb
23:52 Flaps:2 at 199 Knots
23:52 Gear Up: 203 Knots
23:52 TOD
23:52 Fuel Weight: 46492 Lb
23:52 Flaps:1 at 222 Knots
23:52 Flaps:0 at 203 Knots
00:06 TOC
00:06 Fuel Weight: 38112 Lb
00:07 Wind:279?@055 Knots Heading: 004? Ground Speed: 474 Knots Altitude 37358 ft
00:22 Wind:316?@031 Knots Heading: 333? Ground Speed: 445 Knots Altitude 37582 ft
00:25 Com1 Freq=122.80
00:25 Com1 Freq=136.97
00:25 Com1 Freq=122.80
00:25 Com1 Freq=136.97
00:26 Com1 Freq=122.80
00:37 Wind:346?@024 Knots Heading: 354? Ground Speed: 450 Knots Altitude 37582 ft
00:50 Com1 Freq=136.97
00:50 Com1 Freq=122.80
00:52 Wind:002?@029 Knots Heading: 345? Ground Speed: 445 Knots Altitude 37575 ft
01:07 Wind:358?@036 Knots Heading: 344? Ground Speed: 436 Knots Altitude 37582 ft
01:22 Wind:353?@041 Knots Heading: 344? Ground Speed: 430 Knots Altitude 37608 ft
01:35 TOD
01:35 Fuel Weight: 17486 Lb
01:37 Wind:337?@052 Knots Heading: 339? Ground Speed: 385 Knots Altitude 35187 ft
01:52 Wind:292?@020 Knots Heading: 020? Ground Speed: 306 Knots Altitude 12060 ft
01:57 Flaps:1 at 223 Knots
02:04 Flaps:2 at 190 Knots
02:05 Flaps:3 at 177 Knots
02:05 Flaps:2 at 178 Knots
02:05 Flaps:3 at 174 Knots
02:07 Wind:246?@012 Knots Heading: 327? Ground Speed: 164 Knots Altitude 3005 ft
02:07 Flaps:4 at 162 Knots
02:10 Gear Down: 157 Knots
02:10 Flaps:5 at 155 Knots
02:10 Flaps:6 at 149 Knots
02:13 TouchDown:Rate -551 ft/min Speed: 141 Knots
02:13 VATSIM:EPWA 040200Z 18005KT 7000 FEW031 06/06 Q1029 NOSIG
02:13 Land
02:13 Wind:180?@005 Knots
02:13 Heading: 331?
02:13 Flight Duration: 02:21
02:13 Landing Weight: 482778 Lbs
02:13 POS N52? 09? 48?? E020? 58? 08??
02:14 Parking brakes on
02:14 Block to Block Duration: 02:41
02:14 Final Fuel: 11829 Lbls
02:14 Spent Fuel: 37215 Lbls
02:14 Flight Length: 923 NM
02:14 TOD Land Length: 175 NM

Route Map